Time;durP1;ratioP1;P1;durP2;ratioP2;P2;SDS_P1;SDS_P2;PMS_P1;PMS_P2;Temp;Humidity;BMP_temperature;BMP_pressure;BME280_temperature;BME280_humidity;BME280_pressure;Samples;Min_cycle;Max_cycle;Signal;HPM_P1;HPM_P2
2022/12/23 00:01:12;;;;;;;29.90;10.43;;;;;;;6.22;100.00;99656.97;6051926;28;20038;-76
2022/12/23 00:04:07;;;;;;;28.35;10.50;;;;;;;6.29;100.00;99663.31;6051855;28;20038;-75
2022/12/23 00:07:02;;;;;;;28.20;11.07;;;;;;;6.17;100.00;99635.53;6052966;28;20112;-77
2022/12/23 00:09:58;;;;;;;28.83;9.47;;;;;;;6.34;100.00;99659.28;6052693;28;20272;-76
2022/12/23 00:16:10;;;;;;;;;;;;;;;6.38;100.00;99651.94;6052982;28;20049;-77
2022/12/23 00:19:06;;;;;;;21.23;8.43;;;;;;;6.32;100.00;99634.06;6052180;28;19921;-73
2022/12/23 00:22:01;;;;;;;30.50;10.07;;;;;;;6.44;100.00;99646.09;6051976;28;20033;-74
2022/12/23 00:24:56;;;;;;;26.03;10.70;;;;;;;6.37;100.00;99624.75;6052114;28;20402;-77
2022/12/23 00:28:00;;;;;;;28.10;9.73;;;;;;;6.48;100.00;99639.53;6052493;28;20048;-75
2022/12/23 00:31:03;;;;;;;28.75;8.90;;;;;;;6.56;100.00;99634.34;6052555;28;20042;-75
2022/12/23 00:33:59;;;;;;;22.88;8.45;;;;;;;6.60;100.00;99641.00;6050375;28;20169;-74
2022/12/23 00:36:54;;;;;;;23.30;7.73;;;;;;;6.56;100.00;99632.56;6053673;28;20038;-76
2022/12/23 00:43:03;;;;;;;21.77;6.90;;;;;;;6.68;100.00;99622.66;6053882;28;20038;-78
2022/12/23 00:45:58;;;;;;;19.03;7.03;;;;;;;6.73;100.00;99630.94;6053777;28;20038;-74
2022/12/23 00:52:10;;;;;;;18.25;6.70;;;;;;;6.89;100.00;99619.75;6054574;28;20046;-77
2022/12/23 00:55:06;;;;;;;17.85;5.97;;;;;;;7.02;100.00;99636.84;6055236;28;20034;-74
2022/12/23 00:58:01;;;;;;;14.10;6.20;;;;;;;7.01;100.00;99623.81;6053614;28;20033;-74
2022/12/23 01:07:26;;;;;;;15.57;5.75;;;;;;;7.07;100.00;99613.50;6051679;28;20518;-75
2022/12/23 01:10:21;;;;;;;10.43;4.33;;;;;;;7.00;100.00;99607.19;6051220;28;20034;-74
2022/12/23 01:13:16;;;;;;;13.37;5.67;;;;;;;7.12;100.00;99611.22;6050360;28;20045;-74
2022/12/23 01:16:11;;;;;;;12.60;5.00;;;;;;;7.11;100.00;99614.03;6051561;28;20387;-74
2022/12/23 01:19:07;;;;;;;12.33;5.53;;;;;;;7.06;100.00;99603.94;6051850;28;20246;-73
2022/12/23 01:22:02;;;;;;;10.93;4.53;;;;;;;7.17;100.00;99616.06;6051655;28;20034;-74
2022/12/23 01:24:57;;;;;;;9.93;4.57;;;;;;;7.09;100.00;99602.81;6052379;28;20390;-77
2022/12/23 01:27:52;;;;;;;10.57;4.27;;;;;;;7.19;100.00;99612.28;6034273;28;20033;-75
2022/12/23 01:30:48;;;;;;;8.63;3.60;;;;;;;7.20;100.00;99616.56;6053042;28;20041;-75
2022/12/23 01:33:44;;;;;;;7.83;3.43;;;;;;;7.19;100.00;99616.72;6051823;28;20045;-76
2022/12/23 01:36:40;;;;;;;8.75;3.72;;;;;;;7.20;100.00;99613.13;6054467;28;20030;-74
2022/12/23 01:39:35;;;;;;;6.73;2.83;;;;;;;7.16;100.00;99609.97;6053549;28;20038;-76
2022/12/23 01:42:42;;;;;;;5.57;3.00;;;;;;;7.31;100.00;99633.16;6052465;28;20420;-77
2022/12/23 01:45:37;;;;;;;5.55;2.55;;;;;;;7.37;100.00;99624.63;6051652;28;20091;-73
2022/12/23 01:48:33;;;;;;;6.70;3.00;;;;;;;7.30;100.00;99608.59;6051597;28;20037;-75
2022/12/23 01:51:28;;;;;;;7.17;2.60;;;;;;;7.35;100.00;99610.75;6049461;28;20717;-77
2022/12/23 01:54:24;;;;;;;5.75;2.53;;;;;;;7.44;100.00;99626.50;6049690;28;20030;-78
2022/12/23 01:57:19;;;;;;;6.37;2.63;;;;;;;7.35;100.00;99616.88;6051126;28;20033;-74
2022/12/23 02:03:41;;;;;;;5.28;3.03;;;;;;;7.41;100.00;99625.97;6049881;28;20475;-74
2022/12/23 02:09:51;;;;;;;5.93;2.47;;;;;;;7.44;100.00;99634.44;6051787;28;19913;-75
2022/12/23 02:12:56;;;;;;;7.23;3.00;;;;;;;7.44;100.00;99625.69;6050694;28;20034;-76
2022/12/23 02:16:17;;;;;;;6.68;3.40;;;;;;;7.49;100.00;99615.50;6050428;28;20080;-75
2022/12/23 02:19:17;;;;;;;7.47;3.17;;;;;;;7.46;100.00;99615.78;6044851;28;20486;-76
2022/12/23 02:22:50;;;;;;;6.88;3.40;;;;;;;7.53;100.00;99627.38;6050910;28;20442;-75
2022/12/23 02:25:57;;;;;;;8.13;3.22;;;;;;;7.59;100.00;99639.97;6037642;28;20045;-76
2022/12/23 02:29:07;;;;;;;6.97;3.38;;;;;;;7.53;100.00;99635.28;6052979;28;20045;-76
2022/12/23 02:32:16;;;;;;;7.35;3.50;;;;;;;7.50;100.00;99640.91;6052447;28;20042;-76
2022/12/23 02:35:26;;;;;;;7.18;3.03;;;;;;;7.56;100.00;99643.75;6053386;28;20046;-75
2022/12/23 02:38:47;;;;;;;8.73;3.85;;;;;;;7.57;100.00;99647.22;6053775;28;20053;-76
2022/12/23 02:41:52;;;;;;;7.90;3.70;;;;;;;7.63;100.00;99659.78;6034428;28;20041;-76
2022/12/23 02:45:09;;;;;;;8.57;3.70;;;;;;;7.64;100.00;99658.78;6050254;28;20041;-77
2022/12/23 02:48:13;;;;;;;6.97;3.60;;;;;;;7.57;100.00;99644.56;6034359;28;20040;-74
2022/12/23 02:51:12;;;;;;;11.70;3.50;;;;;;;7.70;100.00;99666.09;6052257;28;20525;-75
2022/12/23 02:54:10;;;;;;;7.38;3.30;;;;;;;7.71;100.00;99663.31;6069014;28;20511;-75
2022/12/23 02:57:06;;;;;;;5.35;2.78;;;;;;;7.72;100.00;99661.50;6052189;28;20081;-77
2022/12/23 03:00:03;;;;;;;7.78;3.15;;;;;;;7.75;100.00;99659.38;6050098;28;20061;-74
2022/12/23 03:02:59;;;;;;;8.02;3.83;;;;;;;7.69;100.00;99649.44;6048755;28;20531;-74
2022/12/23 03:05:54;;;;;;;8.83;3.77;;;;;;;7.73;100.00;99664.00;6050402;28;20037;-75
2022/12/23 03:08:51;;;;;;;11.20;4.47;;;;;;;7.76;100.00;99666.34;6049896;28;20036;-75
2022/12/23 03:12:00;;;;;;;11.02;4.88;;;;;;;7.72;100.00;99651.78;6048307;28;20029;-75
2022/12/23 03:15:23;;;;;;;9.52;4.40;;;;;;;7.86;100.00;99655.66;6049370;28;20100;-76
2022/12/23 03:18:28;;;;;;;9.40;5.05;;;;;;;7.85;100.00;99672.50;6032746;28;20406;-74
2022/12/23 03:21:32;;;;;;;9.55;4.75;;;;;;;7.78;100.00;99663.53;6050181;28;20060;-75
2022/12/23 03:24:49;;;;;;;9.32;4.55;;;;;;;7.88;100.00;99666.88;6049208;28;20044;-76
2022/12/23 03:28:07;;;;;;;7.47;3.60;;;;;;;7.75;100.00;99655.91;6032345;28;20026;-75
2022/12/23 03:31:05;;;;;;;9.35;4.05;;;;;;;7.84;100.00;99662.91;6050663;28;20037;-77
2022/12/23 03:34:05;;;;;;;10.18;4.72;;;;;;;7.87;100.00;99669.69;6047962;28;20056;-76
2022/12/23 03:37:04;;;;;;;10.07;4.38;;;;;;;7.83;100.00;99657.81;6052558;28;20048;-75
2022/12/23 03:40:32;;;;;;;9.25;4.30;;;;;;;7.88;100.00;99674.81;6054036;28;20092;-75
2022/12/23 03:43:33;;;;;;;8.85;4.40;;;;;;;7.87;100.00;99670.53;6051801;28;20033;-74
2022/12/23 03:46:37;;;;;;;8.43;3.95;;;;;;;7.80;100.00;99661.56;6053302;28;20076;-77
2022/12/23 03:49:41;;;;;;;8.35;3.80;;;;;;;7.77;100.00;99649.50;6052318;28;20065;-76
2022/12/23 03:52:47;;;;;;;7.70;3.45;;;;;;;7.87;100.00;99673.16;6051891;28;20033;-76
2022/12/23 03:55:47;;;;;;;11.57;4.50;;;;;;;7.79;100.00;99666.03;6054320;28;20423;-76
2022/12/23 03:58:52;;;;;;;11.23;3.75;;;;;;;7.90;100.00;99680.78;6036189;28;20030;-75
2022/12/23 04:01:59;;;;;;;7.55;3.33;;;;;;;7.85;100.00;99680.41;6052238;28;20049;-75
2022/12/23 04:05:18;;;;;;;7.03;3.28;;;;;;;7.84;100.00;99685.84;6053258;28;20044;-74
2022/12/23 04:08:17;;;;;;;10.23;4.07;;;;;;;7.79;100.00;99679.22;6035077;28;20049;-75
2022/12/23 04:11:13;;;;;;;8.05;3.65;;;;;;;7.66;100.00;99667.41;6051784;28;20398;-73
2022/12/23 04:14:08;;;;;;;11.77;4.10;;;;;;;7.80;100.00;99690.56;6051689;28;20036;-75
2022/12/23 04:17:04;;;;;;;7.40;3.10;;;;;;;7.80;100.00;99688.78;6035142;28;20307;-76
2022/12/23 04:19:59;;;;;;;7.95;2.55;;;;;;;7.79;100.00;99688.94;6052568;28;20041;-77
2022/12/23 04:22:54;;;;;;;6.40;2.83;;;;;;;7.76;100.00;99697.16;6051081;28;20033;-76
2022/12/23 04:25:49;;;;;;;6.30;2.67;;;;;;;7.83;100.00;99711.38;6052524;28;20072;-73
2022/12/23 04:28:45;;;;;;;5.73;2.40;;;;;;;7.57;100.00;99676.22;6052172;28;20034;-74
2022/12/23 04:31:40;;;;;;;5.90;2.40;;;;;;;7.83;100.00;99700.84;6052180;28;20101;-76
2022/12/23 04:34:35;;;;;;;5.87;2.13;;;;;;;7.83;100.00;99695.56;6050927;28;20096;-74
2022/12/23 04:37:31;;;;;;;5.80;2.25;;;;;;;7.74;100.00;99685.94;6052054;28;20534;-74
2022/12/23 04:40:26;;;;;;;4.20;1.70;;;;;;;7.82;100.00;99709.75;6052116;28;20041;-76
2022/12/23 04:43:22;;;;;;;6.33;1.90;;;;;;;7.77;100.00;99702.28;6051406;28;20033;-74
2022/12/23 04:46:17;;;;;;;4.47;1.90;;;;;;;7.79;100.00;99705.59;6053050;28;20536;-76
2022/12/23 04:49:12;;;;;;;4.13;1.87;;;;;;;7.83;100.00;99715.88;6054081;28;20037;-76
2022/12/23 04:52:07;;;;;;;4.00;2.00;;;;;;;7.72;100.00;99704.53;6052098;28;20037;-76
2022/12/23 04:55:03;;;;;;;3.53;1.73;;;;;;;7.73;100.00;99715.94;6050975;28;20109;-77
2022/12/23 04:57:58;;;;;;;3.30;1.65;;;;;;;7.78;100.00;99721.59;6052508;28;20030;-77
2022/12/23 05:01:01;;;;;;;3.97;1.70;;;;;;;7.73;100.00;99710.66;6053358;28;20398;-76
2022/12/23 05:03:57;;;;;;;4.93;2.40;;;;;;;7.77;100.00;99717.31;6051511;28;20501;-76
2022/12/23 05:06:52;;;;;;;7.23;2.37;;;;;;;7.66;100.00;99712.25;6052212;28;20070;-76
2022/12/23 05:10:30;;;;;;;6.97;2.60;;;;;;;7.73;100.00;99729.13;6052519;28;20022;-76
2022/12/23 05:13:26;;;;;;;4.90;2.20;;;;;;;7.68;100.00;99742.78;6050979;28;20566;-75
2022/12/23 05:16:21;;;;;;;8.37;3.47;;;;;;;7.55;100.00;99728.31;6050992;28;20068;-77
2022/12/23 05:19:17;;;;;;;9.48;4.55;;;;;;;7.47;100.00;99725.59;6049991;28;20095;-78
2022/12/23 05:22:12;;;;;;;9.07;3.83;;;;;;;7.40;100.00;99738.56;6050215;28;20129;-76
2022/12/23 05:25:08;;;;;;;12.60;4.73;;;;;;;7.42;100.00;99754.25;6050980;28;20026;-76
2022/12/23 05:28:04;;;;;;;15.90;5.13;;;;;;;7.40;100.00;99759.66;6051661;28;20065;-75
2022/12/23 05:31:01;;;;;;;13.95;6.13;;;;;;;7.25;100.00;99741.84;6051074;28;20177;-75
2022/12/23 05:33:56;;;;;;;12.30;5.28;;;;;;;7.30;100.00;99750.16;6050394;28;20072;-75
2022/12/23 05:36:51;;;;;;;12.57;4.97;;;;;;;7.16;100.00;99739.13;6050530;28;20034;-76
2022/12/23 05:39:47;;;;;;;14.27;5.90;;;;;;;7.17;100.00;99746.03;6049579;28;20517;-75
2022/12/23 05:42:42;;;;;;;16.52;5.68;;;;;;;7.17;100.00;99766.34;6050198;28;20026;-75
2022/12/23 05:45:38;;;;;;;13.40;4.43;;;;;;;7.17;100.00;99780.31;6050424;28;20030;-76
2022/12/23 05:48:33;;;;;;;13.85;5.90;;;;;;;6.86;100.00;99734.16;6051111;28;20265;-76
2022/12/23 05:51:28;;;;;;;11.33;5.83;;;;;;;7.11;100.00;99786.19;6050655;28;20037;-76
2022/12/23 05:54:24;;;;;;;16.23;6.63;;;;;;;6.98;100.00;99774.34;6050349;28;20033;-76
2022/12/23 05:57:19;;;;;;;13.55;5.35;;;;;;;6.93;100.00;99774.75;6063934;28;20034;-75
2022/12/23 06:00:14;;;;;;;12.63;4.87;;;;;;;6.95;100.00;99782.53;6033272;28;20084;-75
2022/12/23 06:03:10;;;;;;;13.70;5.55;;;;;;;6.86;100.00;99784.22;6049341;28;20456;-77
2022/12/23 06:06:05;;;;;;;12.20;5.32;;;;;;;6.92;100.00;99794.19;6032941;28;20033;-77
2022/12/23 06:09:01;;;;;;;12.90;4.80;;;;;;;6.82;100.00;99785.47;6049852;28;20061;-76
2022/12/23 06:11:56;;;;;;;13.03;5.03;;;;;;;6.81;100.00;99785.63;6049282;28;20029;-77
2022/12/23 06:14:52;;;;;;;13.07;5.30;;;;;;;6.76;100.00;99796.63;6049632;28;20285;-76
2022/12/23 06:17:48;;;;;;;13.47;5.47;;;;;;;6.75;100.00;99802.84;6049494;28;20037;-76
2022/12/23 06:20:46;;;;;;;11.38;4.90;;;;;;;6.78;100.00;99818.38;6050107;28;20037;-77
2022/12/23 06:23:42;;;;;;;14.32;5.68;;;;;;;6.80;100.00;99826.13;6048616;28;20034;-74
2022/12/23 06:26:37;;;;;;;11.47;4.83;;;;;;;6.73;100.00;99819.78;6050404;28;20034;-77
2022/12/23 06:29:32;;;;;;;16.10;5.67;;;;;;;6.73;100.00;99819.78;6049759;28;20030;-75
2022/12/23 06:32:27;;;;;;;12.73;4.50;;;;;;;6.61;100.00;99813.84;6049507;28;20033;-75
2022/12/23 06:35:23;;;;;;;16.13;5.80;;;;;;;6.64;100.00;99818.84;6050101;28;20030;-76
2022/12/23 06:38:18;;;;;;;14.50;5.85;;;;;;;6.58;100.00;99811.50;6049591;28;20030;-77
2022/12/23 06:41:13;;;;;;;12.30;5.07;;;;;;;6.68;100.00;99828.13;6049699;28;20113;-75
2022/12/23 06:44:09;;;;;;;11.70;5.27;;;;;;;6.56;100.00;99821.34;6049165;28;20360;-75
2022/12/23 06:47:04;;;;;;;12.27;4.80;;;;;;;6.62;100.00;99851.56;6049581;28;20052;-75
2022/12/23 06:49:59;;;;;;;14.60;4.90;;;;;;;6.55;100.00;99840.75;6049858;28;20037;-77
2022/12/23 06:52:55;;;;;;;14.60;5.23;;;;;;;6.52;100.00;99848.97;6048675;28;20043;-76
2022/12/23 06:56:00;;;;;;;13.10;4.82;;;;;;;6.54;100.00;99854.91;6049519;28;20040;-77
2022/12/23 06:58:56;;;;;;;12.57;5.22;;;;;;;6.60;100.00;99870.16;6049037;28;20045;-75
2022/12/23 07:01:51;;;;;;;12.83;5.67;;;;;;;6.53;100.00;99867.25;6048638;28;20433;-76
2022/12/23 07:04:46;;;;;;;12.73;5.27;;;;;;;6.56;100.00;99881.94;6049005;28;20036;-76
2022/12/23 07:07:42;;;;;;;14.07;4.95;;;;;;;6.52;100.00;99880.56;6048888;28;20029;-76
2022/12/23 07:10:37;;;;;;;12.37;5.57;;;;;;;6.47;100.00;99890.66;6050055;28;20038;-76
2022/12/23 07:13:33;;;;;;;14.23;5.53;;;;;;;6.47;100.00;99894.13;6053080;28;20038;-75
2022/12/23 07:16:28;;;;;;;12.88;5.53;;;;;;;6.44;100.00;99883.88;6054077;28;20034;-75
2022/12/23 07:19:24;;;;;;;12.23;4.63;;;;;;;6.49;100.00;99892.22;6053850;28;20052;-75
2022/12/23 07:22:19;;;;;;;13.45;5.50;;;;;;;6.43;100.00;99887.50;6053313;28;20633;-76
2022/12/23 07:25:15;;;;;;;11.50;5.23;;;;;;;6.34;100.00;99880.44;6053706;28;20442;-76
2022/12/23 07:28:10;;;;;;;10.50;4.75;;;;;;;6.47;100.00;99903.81;6053692;28;20040;-75
2022/12/23 07:31:06;;;;;;;11.43;4.80;;;;;;;6.33;100.00;99897.19;6053358;28;20045;-76
2022/12/23 07:34:01;;;;;;;11.23;5.10;;;;;;;6.40;100.00;99894.84;6052362;28;20433;-76
2022/12/23 07:36:56;;;;;;;11.30;4.27;;;;;;;6.40;100.00;99900.94;6053798;28;20060;-76
2022/12/23 07:39:51;;;;;;;15.33;5.07;;;;;;;6.35;100.00;99894.44;6053707;28;20544;-76
2022/12/23 07:42:48;;;;;;;10.03;4.53;;;;;;;6.45;100.00;99911.03;6052356;28;20072;-76
2022/12/23 07:45:44;;;;;;;10.65;4.30;;;;;;;6.41;100.00;99915.75;6052875;28;20033;-75
2022/12/23 07:48:40;;;;;;;10.70;4.70;;;;;;;6.35;100.00;99920.75;6052523;28;20092;-76
2022/12/23 07:51:36;;;;;;;14.18;5.53;;;;;;;6.33;100.00;99909.53;6053372;28;20100;-75
2022/12/23 07:54:31;;;;;;;12.23;5.33;;;;;;;6.39;100.00;99916.84;6052271;28;20034;-75
2022/12/23 07:57:28;;;;;;;14.63;5.20;;;;;;;6.32;100.00;99921.03;6052268;28;20033;-75
2022/12/23 08:00:23;;;;;;;15.20;4.82;;;;;;;6.37;100.00;99939.88;6051641;28;20049;-76
2022/12/23 08:03:18;;;;;;;12.63;5.17;;;;;;;6.44;100.00;99941.81;6051584;28;20053;-76
2022/12/23 08:06:14;;;;;;;12.30;5.33;;;;;;;6.39;100.00;99930.03;6053166;28;20032;-77
2022/12/23 08:09:10;;;;;;;12.68;5.97;;;;;;;6.40;100.00;99929.06;6052771;28;20391;-75
2022/12/23 08:12:05;;;;;;;11.97;5.43;;;;;;;6.51;100.00;99950.00;6051766;28;20038;-76
2022/12/23 08:15:00;;;;;;;16.23;5.60;;;;;;;6.56;100.00;99951.25;6052155;28;20057;-76
2022/12/23 08:17:56;;;;;;;16.10;6.27;;;;;;;6.48;100.00;99939.72;6052429;28;20049;-75
2022/12/23 08:20:58;;;;;;;17.77;6.33;;;;;;;6.48;100.00;99947.63;6052237;28;20037;-75
2022/12/23 08:23:54;;;;;;;14.07;5.32;;;;;;;6.54;100.00;99966.38;6050544;28;20120;-75
2022/12/23 08:26:49;;;;;;;15.23;6.43;;;;;;;6.54;100.00;99962.91;6052074;28;20063;-75
2022/12/23 08:29:44;;;;;;;16.42;6.68;;;;;;;6.50;100.00;99966.75;6051653;28;20426;-74
2022/12/23 08:32:40;;;;;;;18.90;7.00;;;;;;;6.52;100.00;99976.19;6049225;28;20042;-75
2022/12/23 08:35:35;;;;;;;16.67;7.00;;;;;;;6.45;100.00;99968.97;6049804;28;20052;-77
2022/12/23 08:38:31;;;;;;;17.73;6.10;;;;;;;6.49;100.00;99968.59;6050138;28;20481;-75
2022/12/23 08:41:32;;;;;;;15.75;6.40;;;;;;;6.61;100.00;99990.31;6051092;28;20042;-75
2022/12/23 08:44:28;;;;;;;15.48;5.63;;;;;;;6.63;100.00;100001.56;6050157;28;20038;-75
2022/12/23 08:47:23;;;;;;;15.30;6.30;;;;;;;6.56;100.00;100003.09;6051797;28;20117;-77
2022/12/23 08:50:19;;;;;;;15.93;6.23;;;;;;;6.50;100.00;99987.81;6051826;28;20030;-76
2022/12/23 08:53:14;;;;;;;17.63;7.37;;;;;;;6.44;100.00;99983.94;6050379;28;20372;-75
2022/12/23 08:56:13;;;;;;;15.87;6.00;;;;;;;6.56;100.00;100005.72;6051742;28;20073;-76
2022/12/23 08:59:13;;;;;;;14.80;6.05;;;;;;;6.55;100.00;100012.78;6051369;28;20049;-76
2022/12/23 09:02:10;;;;;;;15.30;6.22;;;;;;;6.61;100.00;100011.41;6051140;28;20037;-77
2022/12/23 09:05:05;;;;;;;15.50;5.72;;;;;;;6.59;100.00;100008.06;6050577;28;20036;-76
2022/12/23 09:08:01;;;;;;;18.90;7.75;;;;;;;6.66;100.00;100027.63;6051007;28;20418;-75
2022/12/23 09:10:56;;;;;;;17.10;6.83;;;;;;;6.71;100.00;100028.06;6051541;28;20117;-76
2022/12/23 09:13:51;;;;;;;17.63;6.47;;;;;;;6.71;100.00;100037.75;6050501;28;20022;-75
2022/12/23 09:16:49;;;;;;;15.32;6.10;;;;;;;6.85;100.00;100019.72;6051272;28;20522;-74
2022/12/23 09:19:45;;;;;;;16.33;6.63;;;;;;;6.96;100.00;100022.22;6051087;28;20042;-75
2022/12/23 09:22:40;;;;;;;16.00;6.27;;;;;;;7.07;100.00;100018.59;6050377;28;20033;-77
2022/12/23 09:25:35;;;;;;;12.87;5.37;;;;;;;7.22;100.00;100003.16;6050630;28;20073;-77
2022/12/23 09:28:31;;;;;;;17.80;6.13;;;;;;;6.98;100.00;100003.63;6050873;28;20040;-75
2022/12/23 09:31:26;;;;;;;14.63;6.10;;;;;;;7.07;100.00;100024.69;6051266;28;20276;-76
2022/12/23 09:34:21;;;;;;;17.20;6.55;;;;;;;6.93;100.00;100000.59;6049831;28;20022;-75
2022/12/23 09:37:17;;;;;;;16.67;7.00;;;;;;;6.96;100.00;100011.66;6050743;28;20030;-77
2022/12/23 09:40:14;;;;;;;13.45;6.10;;;;;;;6.93;100.00;99985.59;6050562;28;20080;-76
2022/12/23 09:43:47;;;;;;;17.48;6.90;;;;;;;6.95;100.00;99988.94;6049543;28;20383;-76
2022/12/23 09:46:44;;;;;;;;;;;;;;;7.07;100.00;100013.31;6033258;28;20034;-77
2022/12/23 09:49:47;;;;;;;16.55;6.80;;;;;;;7.04;100.00;99998.63;6050468;28;19957;-76
2022/12/23 09:53:02;;;;;;;16.48;6.80;;;;;;;7.08;100.00;99992.09;6032622;28;20038;-77
2022/12/23 09:56:01;;;;;;;15.15;6.65;;;;;;;7.05;100.00;99995.03;6050201;28;20065;-76
2022/12/23 09:59:02;;;;;;;19.83;7.97;;;;;;;7.20;100.00;100025.22;6050845;28;20029;-76
2022/12/23 10:02:03;;;;;;;15.73;6.78;;;;;;;7.15;100.00;100018.72;6032096;28;20372;-75
2022/12/23 10:05:05;;;;;;;16.65;6.03;;;;;;;7.20;100.00;100017.31;6033343;28;20041;-77
2022/12/23 10:08:03;;;;;;;16.02;6.88;;;;;;;7.04;100.00;100027.63;6050220;28;20360;-76
2022/12/23 10:11:15;;;;;;;20.25;7.22;;;;;;;7.09;100.00;100030.66;6050122;28;20032;-75
2022/12/23 10:14:19;;;;;;;17.05;7.13;;;;;;;7.13;100.00;100018.88;6048947;28;20062;-75
2022/12/23 10:17:24;;;;;;;19.15;6.35;;;;;;;7.04;100.00;100022.34;6032718;28;20064;-76
2022/12/23 10:20:43;;;;;;;18.33;6.85;;;;;;;7.07;100.00;100024.69;6048878;28;20491;-76
2022/12/23 10:23:41;;;;;;;17.52;7.03;;;;;;;7.06;100.00;100017.78;6048235;28;20030;-75
2022/12/23 10:26:42;;;;;;;18.95;7.88;;;;;;;6.97;100.00;100013.34;6050019;28;20053;-75
2022/12/23 10:29:37;;;;;;;17.63;6.53;;;;;;;6.95;100.00;100025.00;6047521;28;20043;-76
2022/12/23 10:33:01;;;;;;;18.63;7.63;;;;;;;6.76;100.00;100010.03;6048790;28;20049;-75
2022/12/23 10:36:06;;;;;;;18.42;8.10;;;;;;;6.71;100.00;100021.97;6048503;28;20465;-75
2022/12/23 10:39:11;;;;;;;16.88;6.63;;;;;;;6.75;100.00;100029.44;6049829;28;20037;-76
2022/12/23 10:42:45;;;;;;;21.42;7.07;;;;;;;6.77;100.00;100032.75;6048573;28;20037;-76
2022/12/23 10:46:13;;;;;;;17.40;7.45;;;;;;;6.75;100.00;100047.03;6045403;28;20462;-76
2022/12/23 10:49:27;;;;;;;19.15;6.03;;;;;;;6.82;100.00;100035.81;6065002;28;20117;-74
2022/12/23 10:52:24;;;;;;;17.88;6.05;;;;;;;6.78;100.00;100033.59;6048619;28;20030;-76
2022/12/23 10:55:27;;;;;;;17.83;6.28;;;;;;;6.79;100.00;100022.94;6048297;28;20116;-76
2022/12/23 10:58:22;;;;;;;17.42;6.82;;;;;;;6.79;100.00;100036.09;6048175;28;20399;-75
2022/12/23 11:01:18;;;;;;;23.48;9.57;;;;;;;6.75;100.00;100013.63;6049360;28;20026;-75
2022/12/23 11:04:15;;;;;;;25.40;10.77;;;;;;;6.78;100.00;100016.00;6046288;28;20026;-76
2022/12/23 11:07:18;;;;;;;19.77;7.70;;;;;;;6.83;100.00;100021.66;6032035;28;20454;-74
2022/12/23 11:10:16;;;;;;;21.35;9.80;;;;;;;6.88;100.00;100013.34;6047979;28;20096;-76
2022/12/23 11:13:22;;;;;;;21.58;8.18;;;;;;;6.94;100.00;100021.53;6048489;28;20033;-74
2022/12/23 11:16:26;;;;;;;20.45;7.75;;;;;;;6.96;100.00;100010.81;6048404;28;20113;-76
2022/12/23 11:19:22;;;;;;;21.52;8.60;;;;;;;6.96;100.00;100013.47;6048483;28;20072;-75
2022/12/23 11:22:24;;;;;;;22.53;8.17;;;;;;;6.82;100.00;100000.75;6048404;28;20034;-76
2022/12/23 11:25:37;;;;;;;21.60;7.68;;;;;;;6.75;100.00;100003.09;6048959;28;20025;-75
2022/12/23 11:28:35;;;;;;;20.08;7.13;;;;;;;6.84;100.00;100015.44;6048043;28;20038;-75
2022/12/23 11:31:33;;;;;;;17.60;6.57;;;;;;;6.93;100.00;100025.13;6048710;28;20069;-75
2022/12/23 11:34:35;;;;;;;22.33;7.35;;;;;;;6.93;100.00;100006.66;6047179;28;20475;-75
2022/12/23 11:37:40;;;;;;;20.08;7.85;;;;;;;6.88;100.00;99994.88;6063634;28;20065;-76
2022/12/23 11:40:37;;;;;;;19.95;6.88;;;;;;;6.95;100.00;99996.84;6047969;28;20483;-75
2022/12/23 11:43:32;;;;;;;22.67;7.90;;;;;;;6.92;100.00;99999.75;6048368;28;20095;-74
2022/12/23 11:46:30;;;;;;;19.85;7.50;;;;;;;6.87;100.00;99991.44;6048828;28;20038;-75
2022/12/23 11:49:27;;;;;;;21.38;7.47;;;;;;;6.92;100.00;99991.00;6048981;28;20042;-75
2022/12/23 11:52:28;;;;;;;20.63;7.10;;;;;;;7.00;100.00;99991.13;6047592;28;20038;-77
2022/12/23 11:55:31;;;;;;;17.70;7.55;;;;;;;7.04;100.00;99987.22;6048881;28;20030;-75
2022/12/23 11:58:28;;;;;;;18.40;6.57;;;;;;;7.14;100.00;99966.97;6050649;28;20037;-76
2022/12/23 12:01:24;;;;;;;16.05;5.78;;;;;;;7.32;100.00;99952.06;6053241;28;20040;-76
2022/12/23 12:04:21;;;;;;;20.92;6.43;;;;;;;7.47;100.00;99958.56;6034829;28;20088;-76
2022/12/23 12:07:18;;;;;;;18.08;6.72;;;;;;;7.19;100.00;99962.94;6051477;28;20065;-76
2022/12/23 12:10:18;;;;;;;14.88;5.43;;;;;;;7.43;100.00;99956.31;6052700;28;20034;-75
2022/12/23 12:13:37;;;;;;;19.65;7.05;;;;;;;7.53;100.00;99978.22;6050399;28;20112;-76
2022/12/23 12:16:39;;;;;;;19.42;8.20;;;;;;;7.26;100.00;99975.53;6035185;28;20033;-76
2022/12/23 12:19:44;;;;;;;18.05;6.55;;;;;;;7.12;100.00;99963.66;6052158;28;20038;-77
2022/12/23 12:22:45;;;;;;;20.95;7.47;;;;;;;7.17;100.00;99927.97;6034867;28;20459;-76
2022/12/23 12:25:55;;;;;;;19.25;6.78;;;;;;;7.42;100.00;99949.41;6050871;28;20037;-75
2022/12/23 12:28:56;;;;;;;19.50;6.97;;;;;;;7.43;100.00;99961.59;6053102;28;20033;-76
2022/12/23 12:31:54;;;;;;;19.05;7.55;;;;;;;7.42;100.00;99944.13;6051650;28;20053;-75
2022/12/23 12:35:05;;;;;;;19.80;7.88;;;;;;;7.26;100.00;99935.97;6051427;28;20465;-76
2022/12/23 12:38:31;;;;;;;24.17;10.32;;;;;;;7.29;100.00;99938.31;6051020;28;20026;-74
2022/12/23 12:41:36;;;;;;;22.30;9.38;;;;;;;7.31;100.00;99933.75;6051915;28;20486;-75
2022/12/23 12:45:08;;;;;;;28.50;9.43;;;;;;;7.24;100.00;99935.28;6051325;28;20084;-76
2022/12/23 12:48:33;;;;;;;25.50;9.57;;;;;;;7.28;100.00;99924.34;6051718;28;20029;-76
2022/12/23 12:51:39;;;;;;;24.73;8.50;;;;;;;7.31;100.00;99915.31;6049848;28;20046;-76
2022/12/23 12:54:55;;;;;;;20.67;8.27;;;;;;;7.34;100.00;99915.03;6039407;28;20034;-74
2022/12/23 12:57:50;;;;;;;30.27;13.35;;;;;;;7.24;100.00;99903.66;6066640;28;20442;-75
2022/12/23 13:01:12;;;;;;;28.93;11.00;;;;;;;7.24;100.00;99903.66;6050867;28;20045;-75
2022/12/23 13:04:23;;;;;;;31.23;10.18;;;;;;;7.26;100.00;99909.59;6066479;28;20053;-77
2022/12/23 13:07:45;;;;;;;28.77;11.18;;;;;;;7.26;100.00;99896.44;6066042;28;20041;-76
2022/12/23 13:10:48;;;;;;;24.58;9.55;;;;;;;7.27;100.00;99895.47;6051037;28;20117;-77
2022/12/23 13:13:51;;;;;;;24.10;9.27;;;;;;;7.22;100.00;99900.34;6050394;28;20048;-74
2022/12/23 13:17:11;;;;;;;29.70;9.98;;;;;;;7.08;100.00;99884.03;6051727;28;20041;-75
2022/12/23 13:20:32;;;;;;;31.27;10.60;;;;;;;7.13;100.00;99883.59;6033654;28;20510;-76
2022/12/23 13:23:39;;;;;;;27.63;8.88;;;;;;;7.03;100.00;99866.97;6035709;28;20053;-74
2022/12/23 13:26:38;;;;;;;38.33;17.85;;;;;;;7.18;100.00;99869.00;6033444;28;20501;-74
2022/12/23 13:29:36;;;;;;;34.03;13.80;;;;;;;7.26;100.00;99881.44;6033442;28;20040;-74
2022/12/23 13:32:56;;;;;;;31.27;12.10;;;;;;;7.18;100.00;99879.53;6049676;28;20160;-76
2022/12/23 13:36:20;;;;;;;28.42;9.02;;;;;;;7.09;100.00;99875.13;6050780;28;20495;-75
2022/12/23 13:39:54;;;;;;;31.67;10.23;;;;;;;6.99;100.00;99858.53;6051068;28;20045;-75
2022/12/23 13:42:54;;;;;;;30.70;11.90;;;;;;;7.10;100.00;99868.88;5979793;28;20054;-75
2022/12/23 13:45:51;;;;;;;29.35;11.55;;;;;;;6.97;100.00;99854.38;6033351;28;20415;-76
2022/12/23 13:49:19;;;;;;;27.52;9.70;;;;;;;7.07;100.00;99877.09;6050469;28;20041;-75
2022/12/23 13:52:20;;;;;;;28.00;9.02;;;;;;;7.05;100.00;99873.75;6049811;28;20107;-76
2022/12/23 13:55:25;;;;;;;29.95;9.15;;;;;;;7.01;100.00;99866.31;6050943;28;20483;-76
2022/12/23 13:58:23;;;;;;;30.60;9.60;;;;;;;7.06;100.00;99879.88;6048771;28;20040;-75
2022/12/23 14:01:32;;;;;;;30.35;10.05;;;;;;;7.01;100.00;99864.47;6035889;28;20030;-77
2022/12/23 14:04:36;;;;;;;33.08;10.57;;;;;;;6.89;100.00;99835.81;6051831;28;20038;-76
2022/12/23 14:07:32;;;;;;;29.27;8.38;;;;;;;7.02;100.00;99860.88;6035121;28;20033;-77
2022/12/23 14:10:28;;;;;;;34.50;10.90;;;;;;;6.90;100.00;99843.56;6052474;28;20399;-75
2022/12/23 14:14:18;;;;;;;31.30;10.68;;;;;;;6.91;100.00;99850.50;6052304;28;20453;-75
2022/12/23 14:17:28;;;;;;;35.58;11.18;;;;;;;6.92;100.00;99849.53;6044304;28;20030;-75
2022/12/23 14:20:29;;;;;;;29.05;9.30;;;;;;;6.92;100.00;99852.19;6037022;28;20034;-76
2022/12/23 14:23:38;;;;;;;33.83;9.80;;;;;;;6.94;100.00;99850.22;6036257;28;20045;-76
2022/12/23 14:26:52;;;;;;;36.95;13.05;;;;;;;6.83;100.00;99831.94;6054342;28;20109;-77